Terminal Aerodrome Forecast
Issued by NWS

Home | Current Version | Previous Version | Text Only | Print | Product List | Glossary On
Versions: 1 2 3 4 5 6 7 8 9 10 11 12 13 14 15 16 17
000
FTUS42 TJSJ 191700 RRA
TAFNCM
TAF
TNCM 191740Z 1918/2018 11014KT P6SM VCSH SCT018 BKN040
      TEMPO 1918/1922 VRB15G24KT 5SM SHRA BKN018
     FM192300 10012KT P6SM FEW020 SCT060
     FM200330 09010KT P6SM VCSH SCT018 BKN035
     FM201450 11015KT P6SM FEW022=

USA.gov is the U.S. government's official web portal to all federal, state and local government web resources and services.